Weather at Schaney's Lair Airport

Public forecast

Using degrees Fahrenheit for public forecast. Weather courtesy of forecast.io.

Closest aviation weather report (METAR) to Schaney's Lair Airport

Closest report is James M Cox Dayton International Airport, 10.3 nm (19.0 km) ENE. Retrieved 2021/05/16 21:56 UTC (24 minutes ago):

KDAY 162156Z 14008KT 10SM SCT065 OVC070 21/07 A3019 RMK AO2 SLP219 T02110067

Closest aviation forecast (TAF) to Schaney's Lair Airport

Closest forecast is James M Cox Dayton International Airport, 10.3 nm (19.0 km) ENE. Retrieved 2021/05/16 18:34 UTC (4 hours ago):

TAF KDAY 161732Z 1618/1718 19005KT P6SM BKN060 FM170200 14004KT P6SM OVC150 FM171000 12005KT P6SM VCSH OVC080 TEMPO 1710/1714 P6SM -SHRA OVC060 FM171400 12009KT 6SM -SHRA OVC035